Terminal Aerodrome Forecast
Issued by NWS

Home | Current Version | Previous Version | Text Only | Print | Product List | Glossary On
Versions: 1 2 3 4 5 6 7 8 9 10 11 12 13 14 15 16 17 18 19 20 21 22 23 24 25
000
FTUS45 KBOU 240559 AAA
TAFBJC
TAF AMD
KBJC 240559Z 2406/2506 01018G30KT P6SM -RA SCT015 OVC025
      TEMPO 2407/2408 2SM -RASN BR BKN012
     FM240800 36016G35KT 1 1/2SM -SN BLSN BR OVC005
      TEMPO 2410/2414 3/4SM -SN BLSN VV003
     FM241500 36014G28KT 2SM -SN BR OVC009
     FM241700 04010KT P6SM VCSH SCT015 BKN040
     FM242000 10007KT P6SM FEW050 SCT120
     FM250100 VRB05KT P6SM FEW100
     FM250400 25006KT P6SM FEW250=

USA.gov is the U.S. government's official web portal to all federal, state and local government web resources and services.